createdAt,value
2017-12-22T00:02:15.998Z,3.22
2017-12-22T00:04:42.949Z,5.20
2017-12-22T00:07:09.861Z,3.87
2017-12-22T00:09:36.801Z,4.10
2017-12-22T00:12:03.713Z,3.83
2017-12-22T00:14:31.403Z,7.00
2017-12-22T00:16:58.320Z,3.58
2017-12-22T00:19:25.311Z,4.55
2017-12-22T00:21:52.188Z,3.00
2017-12-22T00:24:19.144Z,2.22
2017-12-22T00:26:46.066Z,3.15
2017-12-22T00:29:13.008Z,3.53
2017-12-22T00:31:39.976Z,2.83
2017-12-22T00:34:07.652Z,2.75
2017-12-22T00:36:34.575Z,3.05
2017-12-22T00:39:02.264Z,2.62
2017-12-22T00:41:29.164Z,2.97
2017-12-22T00:43:56.080Z,3.40
2017-12-22T00:46:22.984Z,3.53
2017-12-22T00:48:50.669Z,3.72
2017-12-22T00:51:17.584Z,3.40
2017-12-22T00:53:45.313Z,3.22
2017-12-22T00:56:12.222Z,3.00
2017-12-22T00:58:39.132Z,3.28
2017-12-22T01:01:06.985Z,3.60
2017-12-22T01:03:33.900Z,3.15
2017-12-22T01:06:05.365Z,3.72
2017-12-22T01:08:32.283Z,3.80
2017-12-22T01:10:59.204Z,3.78
2017-12-22T01:13:26.108Z,3.17
2017-12-22T01:15:53.949Z,3.50
2017-12-22T01:18:20.854Z,5.60
2017-12-22T01:20:47.802Z,4.40
2017-12-22T01:23:14.721Z,4.60
2017-12-22T01:25:41.667Z,4.12
2017-12-22T01:28:09.337Z,5.05
2017-12-22T01:30:37.028Z,5.07
2017-12-22T01:33:03.945Z,6.68
2017-12-22T01:35:31.641Z,4.75
2017-12-22T01:37:58.561Z,5.45
2017-12-22T01:40:25.500Z,4.90
2017-12-22T01:42:52.418Z,4.82
2017-12-22T01:45:19.340Z,5.82
2017-12-22T01:47:46.250Z,4.78
2017-12-22T01:50:13.193Z,5.57
2017-12-22T01:52:40.116Z,5.47
2017-12-22T01:55:07.028Z,5.12
2017-12-22T01:57:33.947Z,4.90
2017-12-22T02:00:00.857Z,5.87
2017-12-22T02:02:27.785Z,7.10
2017-12-22T02:04:54.694Z,4.35
2017-12-22T02:07:21.614Z,5.65
2017-12-22T02:09:48.520Z,4.93
2017-12-22T02:12:15.445Z,6.45
2017-12-22T02:14:43.120Z,5.68
2017-12-22T02:17:10.810Z,4.15
2017-12-22T02:19:37.713Z,5.80
2017-12-22T02:22:05.400Z,6.60
2017-12-22T02:24:32.304Z,8.50
2017-12-22T02:26:59.228Z,7.28
2017-12-22T02:29:26.131Z,8.23
2017-12-22T02:31:53.057Z,7.85
2017-12-22T02:34:20.747Z,7.05
2017-12-22T02:36:47.681Z,6.20
2017-12-22T02:39:14.589Z,7.47
2017-12-22T02:41:41.519Z,6.97
2017-12-22T02:44:08.424Z,7.15
2017-12-22T02:46:35.357Z,7.03
2017-12-22T02:49:02.264Z,5.97
2017-12-22T02:51:29.193Z,6.25
2017-12-22T02:53:56.100Z,5.70
2017-12-22T02:56:23.038Z,6.12
2017-12-22T02:58:50.033Z,6.82
2017-12-22T03:01:17.933Z,6.22
2017-12-22T03:03:45.608Z,5.37
2017-12-22T03:06:12.513Z,6.53
2017-12-22T03:08:39.432Z,7.20
2017-12-22T03:11:07.341Z,5.03
2017-12-22T03:13:35.036Z,5.70
2017-12-22T03:16:01.940Z,5.15
2017-12-22T03:18:29.619Z,5.03
2017-12-22T03:20:57.288Z,5.32
2017-12-22T03:23:24.216Z,5.20
2017-12-22T03:25:51.884Z,4.60
2017-12-22T03:28:19.570Z,4.40
2017-12-22T03:30:46.468Z,4.70
2017-12-22T03:33:13.391Z,4.60
2017-12-22T03:35:40.355Z,5.55
2017-12-22T03:38:07.258Z,4.50
2017-12-22T03:40:34.164Z,3.85
2017-12-22T03:43:01.089Z,5.10
2017-12-22T03:45:28.003Z,3.30
2017-12-22T03:47:54.952Z,3.25
2017-12-22T03:50:21.878Z,3.22
2017-12-22T03:52:48.801Z,3.60
2017-12-22T03:55:16.477Z,3.55
2017-12-22T03:57:43.404Z,2.90
2017-12-22T04:00:11.289Z,3.10
2017-12-22T04:02:38.984Z,2.53
2017-12-22T04:05:05.889Z,4.12
2017-12-22T04:07:33.610Z,2.72
2017-12-22T04:10:00.521Z,3.78
2017-12-22T04:12:28.212Z,3.28
2017-12-22T04:14:55.116Z,3.37
2017-12-22T04:17:22.809Z,3.15
2017-12-22T04:19:51.654Z,3.08
2017-12-22T04:22:18.577Z,2.55
2017-12-22T04:24:45.481Z,3.80
2017-12-22T04:27:12.432Z,4.55
2017-12-22T04:29:39.344Z,4.00
2017-12-22T04:32:07.019Z,3.08
2017-12-22T04:34:33.943Z,4.35
2017-12-22T04:37:01.626Z,4.53
2017-12-22T04:39:28.553Z,4.15
2017-12-22T04:41:56.226Z,4.18
2017-12-22T04:44:23.908Z,4.95
2017-12-22T04:46:50.813Z,5.70
2017-12-22T04:49:17.732Z,4.57
2017-12-22T04:51:44.636Z,5.62
2017-12-22T04:54:11.550Z,6.15
2017-12-22T04:56:39.220Z,5.30
2017-12-22T04:59:06.916Z,5.57
2017-12-22T05:01:33.848Z,5.22
2017-12-22T05:04:00.785Z,5.43
2017-12-22T05:06:27.705Z,5.75
2017-12-22T05:08:54.647Z,6.03
2017-12-22T05:11:22.340Z,5.70
2017-12-22T05:13:49.258Z,4.37
2017-12-22T05:16:16.932Z,5.93
2017-12-22T05:18:44.617Z,5.22
2017-12-22T05:21:11.530Z,5.20
2017-12-22T05:23:38.453Z,5.00
2017-12-22T05:26:05.349Z,5.43
2017-12-22T05:28:32.272Z,6.22
2017-12-22T05:30:59.176Z,5.28
2017-12-22T05:33:26.077Z,5.87
2017-12-22T05:35:52.999Z,3.95
2017-12-22T05:38:19.900Z,5.60
2017-12-22T05:40:46.816Z,5.43
2017-12-22T05:43:13.715Z,5.28
2017-12-22T05:45:40.631Z,4.30
2017-12-22T05:48:07.536Z,6.03
2017-12-22T05:50:34.452Z,5.10
2017-12-22T05:53:01.356Z,5.12
2017-12-22T05:55:29.045Z,4.78
2017-12-22T05:57:55.953Z,6.10
2017-12-22T06:00:23.666Z,6.65
2017-12-22T06:02:50.568Z,6.97
2017-12-22T06:05:18.261Z,7.93
2017-12-22T06:07:45.168Z,6.28
2017-12-22T06:10:12.114Z,8.30
2017-12-22T06:12:39.026Z,7.60
2017-12-22T06:15:06.719Z,6.85
2017-12-22T06:17:33.628Z,6.22
2017-12-22T06:20:01.321Z,7.60
2017-12-22T06:22:28.224Z,5.60
2017-12-22T06:24:55.152Z,6.43
2017-12-22T06:27:22.065Z,8.10
2017-12-22T06:29:48.996Z,6.57
2017-12-22T06:32:15.908Z,6.55
2017-12-22T06:34:43.643Z,5.90
2017-12-22T06:37:10.524Z,6.62
2017-12-22T06:39:39.381Z,6.40
2017-12-22T06:42:06.289Z,6.37
2017-12-22T06:44:33.977Z,5.55
2017-12-22T06:47:00.876Z,6.65
2017-12-22T06:49:27.804Z,6.57
2017-12-22T06:51:54.712Z,6.78
2017-12-22T06:54:22.504Z,7.97
2017-12-22T06:56:50.345Z,6.65
2017-12-22T06:59:17.259Z,5.93
2017-12-22T07:01:44.156Z,6.65
2017-12-22T07:04:11.077Z,6.85
2017-12-22T07:06:37.982Z,5.80
2017-12-22T07:09:04.900Z,6.30
2017-12-22T07:11:31.803Z,5.43
2017-12-22T07:13:58.720Z,7.78
2017-12-22T07:16:26.391Z,7.87
2017-12-22T07:18:54.079Z,7.28
2017-12-22T07:21:20.996Z,5.53
2017-12-22T07:23:47.916Z,6.47
2017-12-22T07:26:14.839Z,5.53
2017-12-22T07:28:41.786Z,5.95
2017-12-22T07:31:10.461Z,6.47
2017-12-22T07:33:38.129Z,5.70
2017-12-22T07:36:05.856Z,7.72
2017-12-22T07:38:32.793Z,9.10
2017-12-22T07:41:00.612Z,9.02
2017-12-22T07:43:28.281Z,5.97
2017-12-22T07:45:55.974Z,8.93
2017-12-22T07:48:22.880Z,11.73
2017-12-22T07:50:50.569Z,8.25
2017-12-22T07:53:18.330Z,10.48
2017-12-22T07:55:45.248Z,9.43
2017-12-22T07:58:12.928Z,6.80
2017-12-22T08:00:39.844Z,8.48
2017-12-22T08:03:06.749Z,10.38
2017-12-22T08:05:33.696Z,9.95
2017-12-22T08:08:00.623Z,8.77
2017-12-22T08:10:28.564Z,6.20
2017-12-22T08:12:55.486Z,7.72
2017-12-22T08:15:22.405Z,8.50
2017-12-22T08:17:49.357Z,8.15
2017-12-22T08:20:16.329Z,6.70
2017-12-22T08:22:44.014Z,7.90
2017-12-22T08:25:10.926Z,7.37
2017-12-22T08:27:37.873Z,8.68
2017-12-22T08:30:04.805Z,8.00
2017-12-22T08:32:31.737Z,5.57
2017-12-22T08:34:58.640Z,8.10
2017-12-22T08:37:25.596Z,7.05
2017-12-22T08:39:52.520Z,8.02
2017-12-22T08:42:19.442Z,6.85
2017-12-22T08:44:48.043Z,7.22
2017-12-22T08:47:15.762Z,8.07
2017-12-22T08:49:42.669Z,7.05
2017-12-22T08:52:09.583Z,7.62
2017-12-22T08:54:37.269Z,5.97
2017-12-22T08:57:04.177Z,6.70
2017-12-22T08:59:31.092Z,11.05
2017-12-22T09:01:57.997Z,8.52
2017-12-22T09:04:24.936Z,7.40
2017-12-22T09:06:51.853Z,9.23
2017-12-22T09:09:19.541Z,7.35
2017-12-22T09:11:47.213Z,6.30
2017-12-22T09:14:14.137Z,5.30
2017-12-22T09:16:41.036Z,6.25
2017-12-22T09:19:08.004Z,7.12
2017-12-22T09:21:34.877Z,6.80
2017-12-22T09:24:02.571Z,7.05
2017-12-22T09:26:29.473Z,6.80
2017-12-22T09:28:56.388Z,6.95
2017-12-22T09:31:23.304Z,6.47
2017-12-22T09:33:50.220Z,6.90
2017-12-22T09:36:17.893Z,6.05
2017-12-22T09:38:44.821Z,6.90
2017-12-22T09:41:13.510Z,6.15
2017-12-22T09:43:41.206Z,5.43
2017-12-22T09:46:08.125Z,6.55
2017-12-22T09:48:35.814Z,4.97
2017-12-22T09:51:02.740Z,4.60
2017-12-22T09:53:29.660Z,3.60
2017-12-22T09:55:57.328Z,3.60
2017-12-22T09:58:26.046Z,3.90
2017-12-22T10:00:52.969Z,5.20
2017-12-22T10:03:19.909Z,4.15
2017-12-22T10:05:48.589Z,4.45
2017-12-22T10:08:16.282Z,5.35
2017-12-22T10:10:43.188Z,5.57
2017-12-22T10:13:10.875Z,4.32
2017-12-22T10:15:37.781Z,4.20
2017-12-22T10:18:04.701Z,4.20
2017-12-22T10:20:31.607Z,5.32
2017-12-22T10:22:58.528Z,4.28
2017-12-22T10:25:26.201Z,3.92
2017-12-22T10:27:53.125Z,3.95
2017-12-22T10:30:20.037Z,3.10
2017-12-22T10:32:46.962Z,3.42
2017-12-22T10:35:13.868Z,3.47
2017-12-22T10:37:40.785Z,5.03
2017-12-22T10:40:07.699Z,3.58
2017-12-22T10:42:34.618Z,3.28
2017-12-22T10:45:02.292Z,4.07
2017-12-22T10:47:29.204Z,3.83
2017-12-22T10:49:56.116Z,3.72
2017-12-22T10:52:23.042Z,2.72
2017-12-22T10:54:49.954Z,3.22
2017-12-22T10:57:17.672Z,4.28
2017-12-22T10:59:44.593Z,3.53
2017-12-22T11:02:11.567Z,3.70
2017-12-22T11:04:39.252Z,3.70
2017-12-22T11:07:06.181Z,3.53
2017-12-22T11:09:33.137Z,4.28
2017-12-22T11:12:00.063Z,5.03
2017-12-22T11:14:27.071Z,6.15
2017-12-22T11:16:53.994Z,3.67
2017-12-22T11:19:20.899Z,4.62
2017-12-22T11:21:48.797Z,3.70
2017-12-22T11:24:16.472Z,3.80
2017-12-22T11:26:43.412Z,3.72
2017-12-22T11:29:10.352Z,4.53
2017-12-22T11:31:38.029Z,3.50
2017-12-22T11:34:04.954Z,3.12
2017-12-22T11:36:31.888Z,3.92
2017-12-22T11:38:58.800Z,3.87
2017-12-22T11:41:26.676Z,3.22
2017-12-22T11:43:53.607Z,3.25
2017-12-22T11:46:20.524Z,2.85
2017-12-22T11:48:47.453Z,3.03
2017-12-22T11:51:14.355Z,3.05
2017-12-22T11:53:41.276Z,3.70
2017-12-22T11:56:08.189Z,3.28
2017-12-22T11:58:35.880Z,3.10
2017-12-22T12:01:02.780Z,3.15
2017-12-22T12:03:29.708Z,2.83
2017-12-22T12:05:56.616Z,3.10
2017-12-22T12:08:23.553Z,2.92
2017-12-22T12:10:50.485Z,3.65
2017-12-22T12:13:18.333Z,3.33
2017-12-22T12:15:46.021Z,4.10
2017-12-22T12:18:12.925Z,3.10
2017-12-22T12:20:40.616Z,3.25
2017-12-22T12:23:07.520Z,3.08
2017-12-22T12:25:35.217Z,3.67
2017-12-22T12:28:03.056Z,4.60
2017-12-22T12:30:30.764Z,3.70
2017-12-22T12:32:57.668Z,3.17
2017-12-22T12:35:25.352Z,3.17
2017-12-22T12:37:52.268Z,3.25
2017-12-22T12:40:19.184Z,3.78
2017-12-22T12:42:46.861Z,3.40
2017-12-22T12:45:13.804Z,3.95
2017-12-22T12:47:40.724Z,2.85
2017-12-22T12:50:08.396Z,4.25
2017-12-22T12:52:36.092Z,3.35
2017-12-22T12:55:04.949Z,3.65
2017-12-22T12:57:32.636Z,4.50
2017-12-22T12:59:59.549Z,4.78
2017-12-22T13:02:27.242Z,3.00
2017-12-22T13:04:54.916Z,4.32
2017-12-22T13:07:21.836Z,2.97
2017-12-22T13:09:50.512Z,3.15
2017-12-22T13:12:17.437Z,3.08
2017-12-22T13:14:45.108Z,2.75
2017-12-22T13:17:12.804Z,3.85
2017-12-22T13:19:39.716Z,2.95
2017-12-22T13:22:07.401Z,3.03
2017-12-22T13:24:34.310Z,2.33
2017-12-22T13:27:01.996Z,2.50
2017-12-22T13:29:28.904Z,3.40
2017-12-22T13:31:55.862Z,3.10
2017-12-22T13:34:22.799Z,3.50
2017-12-22T13:36:49.745Z,3.25
2017-12-22T13:39:16.664Z,3.72
2017-12-22T13:41:43.585Z,3.08
2017-12-22T13:44:11.256Z,2.75
2017-12-22T13:46:38.949Z,2.80
2017-12-22T13:49:05.901Z,2.37
2017-12-22T13:51:32.816Z,3.58
2017-12-22T13:53:59.745Z,2.87
2017-12-22T13:56:27.434Z,2.85
2017-12-22T13:58:54.343Z,2.87
2017-12-22T14:01:22.478Z,2.62
2017-12-22T14:03:49.453Z,3.58
2017-12-22T14:06:16.356Z,4.37
2017-12-22T14:08:43.286Z,3.50
2017-12-22T14:11:10.199Z,3.47
2017-12-22T14:13:37.157Z,3.90
2017-12-22T14:16:04.089Z,4.15
2017-12-22T14:18:31.036Z,5.18
2017-12-22T14:20:57.940Z,3.05
2017-12-22T14:23:24.874Z,3.60
2017-12-22T14:25:51.785Z,3.78
2017-12-22T14:28:18.704Z,3.12
2017-12-22T14:30:46.417Z,3.28
2017-12-22T14:33:14.248Z,3.40
2017-12-22T14:35:41.172Z,2.95
2017-12-22T14:38:08.880Z,2.58
2017-12-22T14:40:36.559Z,3.58
2017-12-22T14:43:03.485Z,4.35
2017-12-22T14:45:31.164Z,4.32
2017-12-22T14:47:58.095Z,3.50
2017-12-22T14:50:25.010Z,2.80
2017-12-22T14:52:52.953Z,2.70
2017-12-22T14:55:20.630Z,4.32
2017-12-22T14:57:47.549Z,3.03
2017-12-22T15:00:14.469Z,4.37
2017-12-22T15:02:41.396Z,4.30
2017-12-22T15:05:09.312Z,3.15
2017-12-22T15:07:37.026Z,3.70
2017-12-22T15:10:04.707Z,4.35
2017-12-22T15:12:31.637Z,3.00
2017-12-22T15:14:59.337Z,3.28
2017-12-22T15:17:26.244Z,5.85
2017-12-22T15:19:53.945Z,5.20
2017-12-22T15:22:20.865Z,5.07
2017-12-22T15:24:47.797Z,2.00
2017-12-22T15:27:14.693Z,4.22
2017-12-22T15:29:41.637Z,3.87
2017-12-22T15:32:08.545Z,3.10
2017-12-22T15:34:35.465Z,3.05
2017-12-22T15:37:03.140Z,3.55
2017-12-22T15:39:30.849Z,4.55
2017-12-22T15:41:57.757Z,2.92
2017-12-22T15:44:25.589Z,3.75
2017-12-22T15:46:53.268Z,3.72
2017-12-22T15:49:20.966Z,3.03
2017-12-22T15:51:47.873Z,2.97
2017-12-22T15:54:15.554Z,3.83
2017-12-22T15:56:44.444Z,3.53
2017-12-22T15:59:11.361Z,3.33
2017-12-22T16:01:38.297Z,3.78
2017-12-22T16:04:05.609Z,3.35
2017-12-22T16:06:36.901Z,3.75
2017-12-22T16:09:04.576Z,4.12
2017-12-22T16:11:31.520Z,4.72
2017-12-22T16:13:59.206Z,4.07
2017-12-22T16:16:26.128Z,4.45
2017-12-22T16:18:53.041Z,4.57
2017-12-22T16:21:20.002Z,3.42
2017-12-22T16:23:53.085Z,4.68
2017-12-22T16:26:20.021Z,4.10
2017-12-22T16:28:46.955Z,4.87
2017-12-22T16:31:14.645Z,4.50
2017-12-22T16:33:41.584Z,4.35
2017-12-22T16:36:16.870Z,4.10
2017-12-22T16:38:43.792Z,4.82
2017-12-22T16:41:10.724Z,3.40
2017-12-22T16:43:37.641Z,4.95
2017-12-22T16:46:04.612Z,6.10
2017-12-22T16:48:31.534Z,4.78
2017-12-22T16:50:58.469Z,4.55
2017-12-22T16:53:26.147Z,4.87
2017-12-22T16:55:53.094Z,4.95
2017-12-22T16:58:20.024Z,4.40
2017-12-22T17:00:47.100Z,5.57
2017-12-22T17:03:14.948Z,4.50
2017-12-22T17:05:41.861Z,4.80
2017-12-22T17:08:09.558Z,5.78
2017-12-22T17:10:36.508Z,5.20
2017-12-22T17:13:03.422Z,6.35
2017-12-22T17:15:31.122Z,5.05
2017-12-22T17:17:59.979Z,5.03
2017-12-22T17:20:27.648Z,3.80
2017-12-22T17:22:54.572Z,6.30
2017-12-22T17:25:22.266Z,6.32
2017-12-22T17:27:49.197Z,5.05
2017-12-22T17:30:16.870Z,5.47
2017-12-22T17:32:43.797Z,5.78
2017-12-22T17:35:11.491Z,6.45
2017-12-22T17:37:38.431Z,5.57
2017-12-22T17:40:05.389Z,4.28
2017-12-22T17:42:32.313Z,5.65
2017-12-22T17:44:59.252Z,5.78
2017-12-22T17:47:26.213Z,5.20
2017-12-22T17:49:53.139Z,4.82
2017-12-22T17:52:20.820Z,4.80
2017-12-22T17:54:48.644Z,5.12
2017-12-22T17:57:15.576Z,5.00
2017-12-22T17:59:42.501Z,5.40
2017-12-22T18:02:09.420Z,4.07
2017-12-22T18:04:40.062Z,4.12
2017-12-22T18:07:07.751Z,4.75
2017-12-22T18:09:34.672Z,4.45
2017-12-22T18:12:02.387Z,4.95
2017-12-22T18:14:29.332Z,4.30
2017-12-22T18:16:56.280Z,4.50
2017-12-22T18:19:23.204Z,5.07
2017-12-22T18:21:50.138Z,5.72
2017-12-22T18:24:17.054Z,3.92
2017-12-22T18:26:44.783Z,5.80
2017-12-22T18:29:11.713Z,3.75
2017-12-22T18:31:40.676Z,4.20
2017-12-22T18:34:07.585Z,4.30
2017-12-22T18:36:36.202Z,5.10
2017-12-22T18:39:03.112Z,4.20
2017-12-22T18:41:30.819Z,3.80
2017-12-22T18:43:57.720Z,3.78
2017-12-22T18:46:24.619Z,4.62
2017-12-22T18:48:51.541Z,3.12
2017-12-22T18:51:18.464Z,4.15
2017-12-22T18:53:45.377Z,4.28
2017-12-22T18:56:12.349Z,3.10
2017-12-22T18:58:39.242Z,3.20
2017-12-22T19:01:06.186Z,4.05
2017-12-22T19:03:33.115Z,2.58
2017-12-22T19:06:00.057Z,3.70
2017-12-22T19:08:26.979Z,6.43
2017-12-22T19:10:54.676Z,5.50
2017-12-22T19:13:21.588Z,3.67
2017-12-22T19:15:48.531Z,3.85
2017-12-22T19:18:15.452Z,4.10
2017-12-22T19:20:42.372Z,3.92
2017-12-22T19:23:09.296Z,3.75
2017-12-22T19:25:36.213Z,4.22
2017-12-22T19:28:03.885Z,4.53
2017-12-22T19:30:32.489Z,5.30
2017-12-22T19:32:59.396Z,5.03
2017-12-22T19:35:27.115Z,4.30
2017-12-22T19:37:54.015Z,4.32
2017-12-22T19:40:20.917Z,3.75
2017-12-22T19:42:48.807Z,3.87
2017-12-22T19:45:15.724Z,3.75
2017-12-22T19:47:42.631Z,4.57
2017-12-22T19:50:09.530Z,7.07
2017-12-22T19:52:36.473Z,3.83
2017-12-22T19:55:04.147Z,4.07
2017-12-22T19:57:31.324Z,3.50
2017-12-22T19:59:58.264Z,3.55
2017-12-22T20:02:25.184Z,5.80
2017-12-22T20:04:52.874Z,3.45
2017-12-22T20:07:20.644Z,4.53
2017-12-22T20:09:47.572Z,3.33
2017-12-22T20:12:14.497Z,5.35
2017-12-22T20:14:41.405Z,4.30
2017-12-22T20:17:08.373Z,3.42
2017-12-22T20:19:35.308Z,4.15
2017-12-22T20:22:02.268Z,3.40
2017-12-22T20:24:29.235Z,2.70
2017-12-22T20:26:58.149Z,3.65
2017-12-22T20:29:25.109Z,2.67
2017-12-22T20:31:52.072Z,2.97
2017-12-22T20:34:18.996Z,3.33
2017-12-22T20:36:49.170Z,3.25
2017-12-22T20:39:16.121Z,3.05
2017-12-22T20:41:43.061Z,2.55
2017-12-22T20:44:09.985Z,4.18
2017-12-22T20:46:36.916Z,2.78
2017-12-22T20:49:05.757Z,4.90
2017-12-22T20:51:33.468Z,3.80
2017-12-22T20:54:00.433Z,3.45
2017-12-22T20:56:27.371Z,3.28
2017-12-22T20:58:54.288Z,2.95
2017-12-22T21:01:21.996Z,4.22
2017-12-22T21:03:54.725Z,2.70
2017-12-22T21:06:21.645Z,3.87
2017-12-22T21:08:48.562Z,3.35
2017-12-22T21:11:15.483Z,3.45
2017-12-22T21:13:42.396Z,1.87
2017-12-22T21:16:09.329Z,3.05
2017-12-22T21:18:36.248Z,2.75
2017-12-22T21:21:03.154Z,3.00
2017-12-22T21:23:30.937Z,3.35
2017-12-22T21:25:57.856Z,2.40
2017-12-22T21:28:24.782Z,3.67
2017-12-22T21:30:51.697Z,2.60
2017-12-22T21:33:18.613Z,3.60
2017-12-22T21:35:45.528Z,3.85
2017-12-22T21:38:12.468Z,3.00
2017-12-22T21:40:39.385Z,3.62
2017-12-22T21:43:06.317Z,3.50
2017-12-22T21:45:33.989Z,4.07
2017-12-22T21:48:00.942Z,3.15
2017-12-22T21:50:27.910Z,4.30
2017-12-22T21:52:54.837Z,3.97
2017-12-22T21:55:21.780Z,4.35
2017-12-22T21:57:48.699Z,3.00
2017-12-22T22:00:16.523Z,4.80
2017-12-22T22:02:43.470Z,3.95
2017-12-22T22:05:11.145Z,4.03
2017-12-22T22:07:38.833Z,4.05
2017-12-22T22:10:06.669Z,3.55
2017-12-22T22:12:34.361Z,4.15
2017-12-22T22:15:01.277Z,4.53
2017-12-22T22:17:28.974Z,3.72
2017-12-22T22:19:55.893Z,3.00
2017-12-22T22:22:22.796Z,5.75
2017-12-22T22:24:49.772Z,5.47
2017-12-22T22:27:16.704Z,5.05
2017-12-22T22:29:43.661Z,5.45
2017-12-22T22:32:10.578Z,5.62
2017-12-22T22:34:41.368Z,7.72
2017-12-22T22:37:08.280Z,8.30
2017-12-22T22:39:35.237Z,8.07
2017-12-22T22:42:02.165Z,10.40
2017-12-22T22:44:29.091Z,4.50
2017-12-22T22:46:55.991Z,5.70
2017-12-22T22:49:23.684Z,10.00
2017-12-22T22:51:50.584Z,10.20
2017-12-22T22:54:17.504Z,8.52
2017-12-22T22:56:44.417Z,8.85
2017-12-22T22:59:11.357Z,10.13
2017-12-22T23:01:38.305Z,7.05
2017-12-22T23:04:05.236Z,13.95
2017-12-22T23:06:32.912Z,12.93
2017-12-22T23:08:59.836Z,10.80
2017-12-22T23:11:28.517Z,12.52
2017-12-22T23:13:56.212Z,10.68
2017-12-22T23:16:23.116Z,9.00
2017-12-22T23:18:50.048Z,10.48
2017-12-22T23:21:16.970Z,10.60
2017-12-22T23:23:43.884Z,8.73
2017-12-22T23:26:10.799Z,10.93
2017-12-22T23:28:38.493Z,9.27
2017-12-22T23:31:05.401Z,7.97
2017-12-22T23:33:33.099Z,10.18
2017-12-22T23:36:00.009Z,8.57
2017-12-22T23:38:27.729Z,9.25
2017-12-22T23:40:54.640Z,10.18
2017-12-22T23:43:21.555Z,11.68
2017-12-22T23:45:49.384Z,10.00
2017-12-22T23:48:16.314Z,11.95
2017-12-22T23:50:43.220Z,10.95
2017-12-22T23:53:10.938Z,10.85
2017-12-22T23:55:37.854Z,10.60
2017-12-22T23:58:04.777Z,12.70
